ADDS METAR Data INFO
IDs: Format: Raw Decoded Include TAF

Data at: 2300 UTC 21 Nov 2017

METAR for:KI69 (Batavia/Clermont Cnt, OH, US)
Text:KI69 212253Z AUTO 23006KT 10SM CLR 12/M02 A2996 RMK AO2 T01151021
Temperature: 11.5°C ( 53°F)
Dewpoint: -2.1°C ( 28°F) [RH = 39%]
Pressure (altimeter):29.96 inches Hg (1014.6 mb)
Winds:from the SW (230 degrees) at 7 MPH (6 knots; 3.1 m/s)
Visibility:10 or more sm (16+ km)
Ceiling:at least 12,000 feet AGL
Clouds:sky clear below 12,000 feet AGL
QC Flag:automated observation with no human augmentation